sensor_id;sensor_type;location;lat;lon;timestamp;pressure;altitude;pressure_sealevel;temperature;humidity
42771;BME280;28426;42.872;25.314;2023-03-04T00:01:46;97017.84;;;2.62;100.00
42771;BME280;28426;42.872;25.314;2023-03-04T00:04:17;97020.63;;;2.70;100.00
42771;BME280;28426;42.872;25.314;2023-03-04T00:06:48;97023.69;;;2.66;100.00
42771;BME280;28426;42.872;25.314;2023-03-04T00:09:21;97021.03;;;2.56;100.00
42771;BME280;28426;42.872;25.314;2023-03-04T00:11:52;97009.66;;;2.45;100.00
42771;BME280;28426;42.872;25.314;2023-03-04T00:14:22;97004.22;;;2.57;100.00
42771;BME280;28426;42.872;25.314;2023-03-04T00:16:56;96999.13;;;2.65;100.00
42771;BME280;28426;42.872;25.314;2023-03-04T00:19:27;96998.69;;;2.60;100.00
42771;BME280;28426;42.872;25.314;2023-03-04T00:21:57;97003.81;;;2.52;100.00
42771;BME280;28426;42.872;25.314;2023-03-04T00:24:31;96999.50;;;2.41;100.00
42771;BME280;28426;42.872;25.314;2023-03-04T00:27:01;96996.47;;;2.45;100.00
42771;BME280;28426;42.872;25.314;2023-03-04T00:29:32;96992.03;;;2.56;100.00
42771;BME280;28426;42.872;25.314;2023-03-04T00:32:03;96985.94;;;2.65;100.00
42771;BME280;28426;42.872;25.314;2023-03-04T00:34:34;96993.16;;;2.73;100.00
42771;BME280;28426;42.872;25.314;2023-03-04T00:37:07;96994.00;;;2.73;100.00
42771;BME280;28426;42.872;25.314;2023-03-04T00:39:40;96989.44;;;2.66;100.00
42771;BME280;28426;42.872;25.314;2023-03-04T00:42:11;96992.34;;;2.53;100.00
42771;BME280;28426;42.872;25.314;2023-03-04T00:44:41;96996.50;;;2.55;100.00
42771;BME280;28426;42.872;25.314;2023-03-04T00:47:12;96988.72;;;2.64;100.00
42771;BME280;28426;42.872;25.314;2023-03-04T00:49:43;96992.31;;;2.63;100.00
42771;BME280;28426;42.872;25.314;2023-03-04T00:52:14;96993.03;;;2.55;100.00
42771;BME280;28426;42.872;25.314;2023-03-04T00:54:47;96986.50;;;2.59;100.00
42771;BME280;28426;42.872;25.314;2023-03-04T00:57:18;96999.84;;;2.67;100.00
42771;BME280;28426;42.872;25.314;2023-03-04T00:59:48;96996.47;;;2.65;100.00
42771;BME280;28426;42.872;25.314;2023-03-04T01:02:19;96992.63;;;2.59;100.00
42771;BME280;28426;42.872;25.314;2023-03-04T01:04:49;96996.88;;;2.51;100.00
42771;BME280;28426;42.872;25.314;2023-03-04T01:07:21;96992.47;;;2.61;100.00
42771;BME280;28426;42.872;25.314;2023-03-04T01:09:54;96993.84;;;2.65;100.00
42771;BME280;28426;42.872;25.314;2023-03-04T01:12:25;96990.94;;;2.68;100.00
42771;BME280;28426;42.872;25.314;2023-03-04T01:14:55;96991.78;;;2.79;100.00
42771;BME280;28426;42.872;25.314;2023-03-04T01:17:26;97000.38;;;2.81;100.00
42771;BME280;28426;42.872;25.314;2023-03-04T01:19:56;96998.19;;;2.66;100.00
42771;BME280;28426;42.872;25.314;2023-03-04T01:22:27;96999.50;;;2.31;95.85
42771;BME280;28426;42.872;25.314;2023-03-04T01:25:00;96998.66;;;2.30;100.00
42771;BME280;28426;42.872;25.314;2023-03-04T01:27:31;96993.69;;;2.37;100.00
42771;BME280;28426;42.872;25.314;2023-03-04T01:30:02;96993.34;;;2.20;99.94
42771;BME280;28426;42.872;25.314;2023-03-04T01:32:33;96998.53;;;1.81;93.88
42771;BME280;28426;42.872;25.314;2023-03-04T01:35:04;96993.88;;;1.42;95.09
42771;BME280;28426;42.872;25.314;2023-03-04T01:37:35;96997.06;;;1.14;97.08
42771;BME280;28426;42.872;25.314;2023-03-04T01:40:10;96989.75;;;0.97;100.00
42771;BME280;28426;42.872;25.314;2023-03-04T01:42:42;96991.19;;;0.89;100.00
42771;BME280;28426;42.872;25.314;2023-03-04T01:45:15;96995.75;;;0.87;100.00
42771;BME280;28426;42.872;25.314;2023-03-04T01:47:47;96989.41;;;0.90;100.00
42771;BME280;28426;42.872;25.314;2023-03-04T01:50:21;96988.91;;;0.96;100.00
42771;BME280;28426;42.872;25.314;2023-03-04T01:52:53;96983.84;;;1.04;100.00
42771;BME280;28426;42.872;25.314;2023-03-04T01:55:27;96985.31;;;1.19;100.00
42771;BME280;28426;42.872;25.314;2023-03-04T01:57:59;96980.81;;;1.30;100.00
42771;BME280;28426;42.872;25.314;2023-03-04T02:00:32;96987.75;;;1.32;100.00
42771;BME280;28426;42.872;25.314;2023-03-04T02:03:06;96990.06;;;1.25;100.00
42771;BME280;28426;42.872;25.314;2023-03-04T02:05:40;96988.91;;;1.17;100.00
42771;BME280;28426;42.872;25.314;2023-03-04T02:08:11;96992.28;;;1.08;100.00
42771;BME280;28426;42.872;25.314;2023-03-04T02:10:46;96984.25;;;1.00;100.00
42771;BME280;28426;42.872;25.314;2023-03-04T02:13:37;96991.16;;;1.01;100.00
42771;BME280;28426;42.872;25.314;2023-03-04T02:16:08;96986.47;;;1.04;100.00
42771;BME280;28426;42.872;25.314;2023-03-04T02:18:39;96985.81;;;1.12;100.00
42771;BME280;28426;42.872;25.314;2023-03-04T02:21:15;96980.50;;;1.24;100.00
42771;BME280;28426;42.872;25.314;2023-03-04T02:23:55;96970.88;;;1.34;100.00
42771;BME280;28426;42.872;25.314;2023-03-04T02:26:31;96978.94;;;1.42;100.00
42771;BME280;28426;42.872;25.314;2023-03-04T02:29:03;96979.78;;;1.43;100.00
42771;BME280;28426;42.872;25.314;2023-03-04T02:31:36;96977.78;;;1.35;100.00
42771;BME280;28426;42.872;25.314;2023-03-04T02:34:11;96975.50;;;1.21;100.00
42771;BME280;28426;42.872;25.314;2023-03-04T02:36:43;96969.25;;;1.12;100.00
42771;BME280;28426;42.872;25.314;2023-03-04T02:39:22;96980.13;;;1.07;100.00
42771;BME280;28426;42.872;25.314;2023-03-04T02:41:58;96982.31;;;1.02;100.00
42771;BME280;28426;42.872;25.314;2023-03-04T02:44:33;96985.91;;;1.01;100.00
42771;BME280;28426;42.872;25.314;2023-03-04T02:47:05;96987.00;;;0.98;100.00
42771;BME280;28426;42.872;25.314;2023-03-04T02:49:39;96988.66;;;0.99;100.00
42771;BME280;28426;42.872;25.314;2023-03-04T02:52:14;96983.25;;;1.22;100.00
42771;BME280;28426;42.872;25.314;2023-03-04T02:54:47;96980.59;;;1.43;100.00
42771;BME280;28426;42.872;25.314;2023-03-04T02:57:20;96976.56;;;1.61;100.00
42771;BME280;28426;42.872;25.314;2023-03-04T02:59:53;96977.47;;;1.81;100.00
42771;BME280;28426;42.872;25.314;2023-03-04T03:02:26;96981.25;;;1.98;100.00
42771;BME280;28426;42.872;25.314;2023-03-04T03:04:57;96979.22;;;2.12;100.00
42771;BME280;28426;42.872;25.314;2023-03-04T03:07:28;96973.69;;;2.25;100.00
42771;BME280;28426;42.872;25.314;2023-03-04T03:10:01;96972.63;;;2.37;100.00
42771;BME280;28426;42.872;25.314;2023-03-04T03:12:35;96978.72;;;2.47;100.00
42771;BME280;28426;42.872;25.314;2023-03-04T03:15:07;96975.97;;;2.59;100.00
42771;BME280;28426;42.872;25.314;2023-03-04T03:17:37;96972.50;;;2.68;100.00
42771;BME280;28426;42.872;25.314;2023-03-04T03:20:11;96974.31;;;2.78;100.00
42771;BME280;28426;42.872;25.314;2023-03-04T03:22:42;96967.53;;;2.85;100.00
42771;BME280;28426;42.872;25.314;2023-03-04T03:25:14;96972.91;;;2.93;100.00
42771;BME280;28426;42.872;25.314;2023-03-04T03:27:48;96968.88;;;2.99;100.00
42771;BME280;28426;42.872;25.314;2023-03-04T03:30:19;96968.47;;;3.04;100.00
42771;BME280;28426;42.872;25.314;2023-03-04T03:32:49;96971.25;;;3.12;100.00
42771;BME280;28426;42.872;25.314;2023-03-04T03:35:20;96972.63;;;3.16;100.00
42771;BME280;28426;42.872;25.314;2023-03-04T03:37:51;96974.81;;;3.21;100.00
42771;BME280;28426;42.872;25.314;2023-03-04T03:40:22;96969.28;;;3.24;100.00
42771;BME280;28426;42.872;25.314;2023-03-04T03:42:55;96974.94;;;3.29;100.00
42771;BME280;28426;42.872;25.314;2023-03-04T03:45:26;96966.75;;;3.32;100.00
42771;BME280;28426;42.872;25.314;2023-03-04T03:47:57;96971.59;;;3.37;100.00
42771;BME280;28426;42.872;25.314;2023-03-04T03:50:27;96974.75;;;3.40;100.00
42771;BME280;28426;42.872;25.314;2023-03-04T03:52:58;96970.06;;;3.44;100.00
42771;BME280;28426;42.872;25.314;2023-03-04T03:55:29;96977.97;;;3.44;100.00
42771;BME280;28426;42.872;25.314;2023-03-04T03:58:02;96982.94;;;3.47;100.00
42771;BME280;28426;42.872;25.314;2023-03-04T04:00:33;96979.22;;;3.50;100.00
42771;BME280;28426;42.872;25.314;2023-03-04T04:03:03;96980.03;;;3.50;100.00
42771;BME280;28426;42.872;25.314;2023-03-04T04:05:34;96978.94;;;3.43;100.00
42771;BME280;28426;42.872;25.314;2023-03-04T04:08:04;96977.41;;;3.40;100.00
42771;BME280;28426;42.872;25.314;2023-03-04T04:10:35;96981.75;;;3.32;100.00
42771;BME280;28426;42.872;25.314;2023-03-04T04:13:09;96979.94;;;3.32;100.00
42771;BME280;28426;42.872;25.314;2023-03-04T04:15:39;96978.16;;;3.23;100.00
42771;BME280;28426;42.872;25.314;2023-03-04T04:18:10;96980.63;;;3.24;100.00
42771;BME280;28426;42.872;25.314;2023-03-04T04:20:41;96980.22;;;3.19;100.00
42771;BME280;28426;42.872;25.314;2023-03-04T04:23:11;96973.03;;;3.21;100.00
42771;BME280;28426;42.872;25.314;2023-03-04T04:25:42;96971.34;;;3.20;100.00
42771;BME280;28426;42.872;25.314;2023-03-04T04:28:15;96975.66;;;3.21;100.00
42771;BME280;28426;42.872;25.314;2023-03-04T04:30:46;96972.47;;;3.18;100.00
42771;BME280;28426;42.872;25.314;2023-03-04T04:33:17;96967.91;;;3.10;100.00
42771;BME280;28426;42.872;25.314;2023-03-04T04:35:48;96966.53;;;2.96;100.00
42771;BME280;28426;42.872;25.314;2023-03-04T04:38:18;96968.06;;;2.79;100.00
42771;BME280;28426;42.872;25.314;2023-03-04T04:40:49;96960.72;;;2.82;100.00
42771;BME280;28426;42.872;25.314;2023-03-04T04:43:22;96966.00;;;2.82;100.00
42771;BME280;28426;42.872;25.314;2023-03-04T04:45:53;96969.59;;;2.91;100.00
42771;BME280;28426;42.872;25.314;2023-03-04T04:48:23;96973.75;;;2.94;100.00
42771;BME280;28426;42.872;25.314;2023-03-04T04:50:54;96975.25;;;2.86;100.00
42771;BME280;28426;42.872;25.314;2023-03-04T04:53:25;96968.50;;;2.74;100.00
42771;BME280;28426;42.872;25.314;2023-03-04T04:55:56;96981.53;;;2.76;100.00
42771;BME280;28426;42.872;25.314;2023-03-04T04:58:29;96976.66;;;2.81;100.00
42771;BME280;28426;42.872;25.314;2023-03-04T05:01:00;96981.66;;;2.84;100.00
42771;BME280;28426;42.872;25.314;2023-03-04T05:03:31;96987.75;;;2.94;100.00
42771;BME280;28426;42.872;25.314;2023-03-04T05:06:03;96985.00;;;2.96;100.00
42771;BME280;28426;42.872;25.314;2023-03-04T05:08:35;96980.13;;;2.91;100.00
42771;BME280;28426;42.872;25.314;2023-03-04T05:11:06;96993.44;;;2.80;100.00
42771;BME280;28426;42.872;25.314;2023-03-04T05:13:40;96994.56;;;2.67;100.00
42771;BME280;28426;42.872;25.314;2023-03-04T05:16:11;96993.59;;;2.68;100.00
42771;BME280;28426;42.872;25.314;2023-03-04T05:18:42;96985.00;;;2.66;100.00
42771;BME280;28426;42.872;25.314;2023-03-04T05:21:13;97003.97;;;2.80;100.00
42771;BME280;28426;42.872;25.314;2023-03-04T05:23:44;97005.94;;;2.87;100.00
42771;BME280;28426;42.872;25.314;2023-03-04T05:26:17;97005.38;;;2.84;100.00
42771;BME280;28426;42.872;25.314;2023-03-04T05:28:50;97006.78;;;2.78;100.00
42771;BME280;28426;42.872;25.314;2023-03-04T05:31:21;97011.19;;;2.68;100.00
42771;BME280;28426;42.872;25.314;2023-03-04T05:33:51;97012.13;;;2.57;100.00
42771;BME280;28426;42.872;25.314;2023-03-04T05:36:22;97012.16;;;2.67;100.00
42771;BME280;28426;42.872;25.314;2023-03-04T05:38:53;97015.78;;;2.76;100.00
42771;BME280;28426;42.872;25.314;2023-03-04T05:41:23;97013.97;;;2.86;100.00
42771;BME280;28426;42.872;25.314;2023-03-04T05:43:56;97008.56;;;2.87;100.00
42771;BME280;28426;42.872;25.314;2023-03-04T05:46:27;97006.59;;;2.80;100.00
42771;BME280;28426;42.872;25.314;2023-03-04T05:49:00;97004.81;;;2.70;100.00
42771;BME280;28426;42.872;25.314;2023-03-04T05:51:30;97002.03;;;2.62;100.00
42771;BME280;28426;42.872;25.314;2023-03-04T05:54:01;97010.66;;;2.74;100.00
42771;BME280;28426;42.872;25.314;2023-03-04T05:56:31;97011.47;;;2.74;100.00
42771;BME280;28426;42.872;25.314;2023-03-04T05:59:04;97007.44;;;2.70;100.00
42771;BME280;28426;42.872;25.314;2023-03-04T06:01:35;97009.94;;;2.82;100.00
42771;BME280;28426;42.872;25.314;2023-03-04T06:04:06;97013.72;;;2.89;100.00
42771;BME280;28426;42.872;25.314;2023-03-04T06:06:37;96998.28;;;2.74;100.00
42771;BME280;28426;42.872;25.314;2023-03-04T06:09:08;97013.16;;;2.76;100.00
42771;BME280;28426;42.872;25.314;2023-03-04T06:11:39;97022.97;;;2.64;100.00
42771;BME280;28426;42.872;25.314;2023-03-04T06:14:14;97020.34;;;2.73;100.00
42771;BME280;28426;42.872;25.314;2023-03-04T06:16:45;97015.34;;;2.80;100.00
42771;BME280;28426;42.872;25.314;2023-03-04T06:19:17;97022.00;;;2.74;100.00
42771;BME280;28426;42.872;25.314;2023-03-04T06:21:48;97023.25;;;2.70;100.00
42771;BME280;28426;42.872;25.314;2023-03-04T06:24:19;97018.97;;;2.79;100.00
42771;BME280;28426;42.872;25.314;2023-03-04T06:26:50;97009.69;;;2.85;100.00
42771;BME280;28426;42.872;25.314;2023-03-04T06:29:24;97020.91;;;2.87;100.00
42771;BME280;28426;42.872;25.314;2023-03-04T06:31:54;97023.97;;;2.82;100.00
42771;BME280;28426;42.872;25.314;2023-03-04T06:34:25;97016.47;;;2.87;100.00
42771;BME280;28426;42.872;25.314;2023-03-04T06:36:56;97015.91;;;2.94;100.00
42771;BME280;28426;42.872;25.314;2023-03-04T06:39:26;97026.16;;;3.07;100.00
42771;BME280;28426;42.872;25.314;2023-03-04T06:41:57;97020.22;;;3.14;100.00
42771;BME280;28426;42.872;25.314;2023-03-04T06:44:30;97016.75;;;3.14;100.00
42771;BME280;28426;42.872;25.314;2023-03-04T06:47:01;97017.00;;;3.11;100.00
42771;BME280;28426;42.872;25.314;2023-03-04T06:49:32;97013.69;;;2.99;100.00
42771;BME280;28426;42.872;25.314;2023-03-04T06:52:02;97018.13;;;2.88;100.00
42771;BME280;28426;42.872;25.314;2023-03-04T06:54:33;97024.81;;;3.03;100.00
42771;BME280;28426;42.872;25.314;2023-03-04T06:57:04;97018.97;;;3.09;100.00
42771;BME280;28426;42.872;25.314;2023-03-04T06:59:37;97016.59;;;3.06;100.00
42771;BME280;28426;42.872;25.314;2023-03-04T07:02:09;97018.81;;;3.20;100.00
42771;BME280;28426;42.872;25.314;2023-03-04T07:04:40;97012.16;;;3.26;100.00
42771;BME280;28426;42.872;25.314;2023-03-04T07:07:11;97022.69;;;3.26;100.00
42771;BME280;28426;42.872;25.314;2023-03-04T07:09:42;97016.16;;;3.20;100.00
42771;BME280;28426;42.872;25.314;2023-03-04T07:12:12;97018.94;;;3.29;100.00
42771;BME280;28426;42.872;25.314;2023-03-04T07:14:46;97022.69;;;3.36;100.00
42771;BME280;28426;42.872;25.314;2023-03-04T07:17:16;97019.50;;;3.32;100.00
42771;BME280;28426;42.872;25.314;2023-03-04T07:19:48;97022.56;;;3.27;100.00
42771;BME280;28426;42.872;25.314;2023-03-04T07:22:19;97021.31;;;3.32;100.00
42771;BME280;28426;42.872;25.314;2023-03-04T07:24:49;97022.09;;;3.42;100.00
42771;BME280;28426;42.872;25.314;2023-03-04T07:27:20;97025.16;;;3.47;100.00
42771;BME280;28426;42.872;25.314;2023-03-04T07:29:53;97020.31;;;3.43;100.00
42771;BME280;28426;42.872;25.314;2023-03-04T07:32:25;97015.03;;;3.52;100.00
42771;BME280;28426;42.872;25.314;2023-03-04T07:34:56;97009.44;;;3.65;100.00
42771;BME280;28426;42.872;25.314;2023-03-04T07:37:27;97016.63;;;3.73;100.00
42771;BME280;28426;42.872;25.314;2023-03-04T07:39:57;97006.63;;;3.77;100.00
42771;BME280;28426;42.872;25.314;2023-03-04T07:42:29;97006.00;;;3.93;100.00
42771;BME280;28426;42.872;25.314;2023-03-04T07:45:09;96991.81;;;4.22;100.00
42771;BME280;28426;42.872;25.314;2023-03-04T07:47:39;96999.94;;;4.39;100.00
42771;BME280;28426;42.872;25.314;2023-03-04T07:50:11;96996.53;;;4.47;100.00
42771;BME280;28426;42.872;25.314;2023-03-04T07:52:45;96997.53;;;4.64;100.00
42771;BME280;28426;42.872;25.314;2023-03-04T07:55:18;96996.25;;;4.68;96.59
42771;BME280;28426;42.872;25.314;2023-03-04T07:57:49;96998.59;;;4.71;94.75
42771;BME280;28426;42.872;25.314;2023-03-04T08:00:22;96993.53;;;4.60;91.72
42771;BME280;28426;42.872;25.314;2023-03-04T08:02:53;96995.59;;;4.66;97.83
42771;BME280;28426;42.872;25.314;2023-03-04T08:05:24;97001.00;;;4.82;97.36
42771;BME280;28426;42.872;25.314;2023-03-04T08:07:55;96999.88;;;5.03;97.80
42771;BME280;28426;42.872;25.314;2023-03-04T08:10:26;96996.38;;;5.21;95.44
42771;BME280;28426;42.872;25.314;2023-03-04T08:12:57;96998.19;;;5.39;96.92
42771;BME280;28426;42.872;25.314;2023-03-04T08:15:30;96993.19;;;5.62;93.85
42771;BME280;28426;42.872;25.314;2023-03-04T08:18:02;96988.53;;;5.82;92.32
42771;BME280;28426;42.872;25.314;2023-03-04T08:20:32;96983.06;;;5.92;88.49
42771;BME280;28426;42.872;25.314;2023-03-04T08:23:03;96986.88;;;5.89;90.69
42771;BME280;28426;42.872;25.314;2023-03-04T08:25:34;96981.38;;;6.09;94.00
42771;BME280;28426;42.872;25.314;2023-03-04T08:28:08;96977.13;;;6.25;90.80
42771;BME280;28426;42.872;25.314;2023-03-04T08:30:42;96980.00;;;6.48;91.40
42771;BME280;28426;42.872;25.314;2023-03-04T08:33:13;96973.25;;;6.71;89.23
42771;BME280;28426;42.872;25.314;2023-03-04T08:35:44;96978.59;;;6.96;91.22
42771;BME280;28426;42.872;25.314;2023-03-04T08:38:15;96972.63;;;7.10;86.98
42771;BME280;28426;42.872;25.314;2023-03-04T08:40:51;96948.41;;;6.97;82.86
42771;BME280;28426;42.872;25.314;2023-03-04T08:43:24;96971.28;;;7.06;86.72
42771;BME280;28426;42.872;25.314;2023-03-04T08:45:58;96962.31;;;7.24;87.27
42771;BME280;28426;42.872;25.314;2023-03-04T08:48:28;96958.66;;;7.33;83.73
42771;BME280;28426;42.872;25.314;2023-03-04T08:50:59;96969.09;;;7.51;86.09
42771;BME280;28426;42.872;25.314;2023-03-04T08:53:30;96965.91;;;7.64;83.00
42771;BME280;28426;42.872;25.314;2023-03-04T08:56:01;96957.91;;;7.81;84.71
42771;BME280;28426;42.872;25.314;2023-03-04T08:58:31;96949.25;;;7.87;80.23
42771;BME280;28426;42.872;25.314;2023-03-04T09:01:07;96956.31;;;8.03;83.97
42771;BME280;28426;42.872;25.314;2023-03-04T09:03:38;96959.25;;;8.17;79.89
42771;BME280;28426;42.872;25.314;2023-03-04T09:06:12;96959.69;;;8.29;82.13
42771;BME280;28426;42.872;25.314;2023-03-04T09:08:44;96963.31;;;8.36;77.64
42771;BME280;28426;42.872;25.314;2023-03-04T09:11:15;96951.53;;;8.30;76.51
42771;BME280;28426;42.872;25.314;2023-03-04T09:13:46;96946.34;;;8.37;78.08
42771;BME280;28426;42.872;25.314;2023-03-04T09:16:20;96948.88;;;8.30;75.22
42771;BME280;28426;42.872;25.314;2023-03-04T09:18:51;96945.97;;;8.17;74.11
42771;BME280;28426;42.872;25.314;2023-03-04T09:21:22;96950.50;;;8.08;77.72
42771;BME280;28426;42.872;25.314;2023-03-04T09:23:53;96942.66;;;8.15;76.81
42771;BME280;28426;42.872;25.314;2023-03-04T09:26:25;96945.63;;;8.20;77.19
42771;BME280;28426;42.872;25.314;2023-03-04T09:28:59;96942.25;;;8.26;76.20
42771;BME280;28426;42.872;25.314;2023-03-04T09:31:33;96933.44;;;8.25;75.81
42771;BME280;28426;42.872;25.314;2023-03-04T09:34:03;96939.59;;;8.26;75.16
42771;BME280;28426;42.872;25.314;2023-03-04T09:36:35;96939.78;;;8.24;75.50
42771;BME280;28426;42.872;25.314;2023-03-04T09:39:06;96943.25;;;8.25;73.78
42771;BME280;28426;42.872;25.314;2023-03-04T09:41:39;96940.16;;;8.13;72.47
42771;BME280;28426;42.872;25.314;2023-03-04T09:44:15;96938.81;;;8.17;75.50
42771;BME280;28426;42.872;25.314;2023-03-04T09:46:54;96935.50;;;8.15;74.33
42771;BME280;28426;42.872;25.314;2023-03-04T09:49:27;96927.38;;;8.08;74.26
42771;BME280;28426;42.872;25.314;2023-03-04T09:52:02;96919.31;;;7.93;78.09
42771;BME280;28426;42.872;25.314;2023-03-04T09:54:50;96926.78;;;7.98;75.79
42771;BME280;28426;42.872;25.314;2023-03-04T09:57:28;96912.66;;;7.97;76.07
42771;BME280;28426;42.872;25.314;2023-03-04T10:00:08;96923.25;;;8.06;75.15
42771;BME280;28426;42.872;25.314;2023-03-04T10:03:09;96910.00;;;7.97;76.56
42771;BME280;28426;42.872;25.314;2023-03-04T10:05:54;96906.97;;;8.09;76.72
42771;BME280;28426;42.872;25.314;2023-03-04T10:08:32;96909.97;;;8.06;74.80
42771;BME280;28426;42.872;25.314;2023-03-04T10:11:10;96910.00;;;7.97;76.77
42771;BME280;28426;42.872;25.314;2023-03-04T10:13:53;96906.59;;;8.12;76.97
42771;BME280;28426;42.872;25.314;2023-03-04T10:16:29;96894.31;;;8.11;74.54
42771;BME280;28426;42.872;25.314;2023-03-04T10:19:17;96901.06;;;8.22;77.47
42771;BME280;28426;42.872;25.314;2023-03-04T10:21:51;96885.91;;;8.31;74.58
42771;BME280;28426;42.872;25.314;2023-03-04T10:24:26;96886.91;;;8.30;75.95
42771;BME280;28426;42.872;25.314;2023-03-04T10:27:01;96887.81;;;8.45;76.68
42771;BME280;28426;42.872;25.314;2023-03-04T10:29:35;96879.50;;;8.48;73.07
42771;BME280;28426;42.872;25.314;2023-03-04T10:32:09;96876.97;;;8.55;75.31
42771;BME280;28426;42.872;25.314;2023-03-04T10:34:44;96878.78;;;8.55;72.68
42771;BME280;28426;42.872;25.314;2023-03-04T10:37:14;96875.41;;;8.37;71.12
42771;BME280;28426;42.872;25.314;2023-03-04T10:39:46;96871.97;;;8.29;75.10
42771;BME280;28426;42.872;25.314;2023-03-04T10:42:27;96861.31;;;8.29;73.48
42771;BME280;28426;42.872;25.314;2023-03-04T10:45:19;96860.44;;;8.36;75.26
42771;BME280;28426;42.872;25.314;2023-03-04T10:47:54;96850.94;;;8.42;72.35
42771;BME280;28426;42.872;25.314;2023-03-04T10:50:27;96853.94;;;8.39;72.08
42771;BME280;28426;42.872;25.314;2023-03-04T10:52:59;96841.31;;;8.41;74.81
42771;BME280;28426;42.872;25.314;2023-03-04T10:55:41;96845.81;;;8.64;73.79
42771;BME280;28426;42.872;25.314;2023-03-04T10:58:14;96842.47;;;8.85;75.25
42771;BME280;28426;42.872;25.314;2023-03-04T11:00:58;96828.94;;;9.10;71.90
42771;BME280;28426;42.872;25.314;2023-03-04T11:03:33;96825.09;;;9.28;72.50
42771;BME280;28426;42.872;25.314;2023-03-04T11:06:16;96826.16;;;9.49;69.43
42771;BME280;28426;42.872;25.314;2023-03-04T11:08:53;96816.59;;;9.70;71.38
42771;BME280;28426;42.872;25.314;2023-03-04T11:11:29;96808.81;;;9.90;67.81
42771;BME280;28426;42.872;25.314;2023-03-04T11:14:09;96809.84;;;9.89;66.25
42771;BME280;28426;42.872;25.314;2023-03-04T11:16:51;96806.00;;;9.76;69.64
42771;BME280;28426;42.872;25.314;2023-03-04T11:19:24;96801.69;;;9.75;68.20
42771;BME280;28426;42.872;25.314;2023-03-04T11:21:59;96795.72;;;9.73;67.18
42771;BME280;28426;42.872;25.314;2023-03-04T11:24:32;96792.94;;;9.81;67.76
42771;BME280;28426;42.872;25.314;2023-03-04T11:27:05;96790.00;;;9.91;66.80
42771;BME280;28426;42.872;25.314;2023-03-04T11:29:42;96777.66;;;10.12;67.55
42771;BME280;28426;42.872;25.314;2023-03-04T11:32:19;96763.59;;;10.18;65.08
42771;BME280;28426;42.872;25.314;2023-03-04T11:34:55;96773.78;;;10.15;66.02
42771;BME280;28426;42.872;25.314;2023-03-04T11:37:35;96775.06;;;10.19;65.50
42771;BME280;28426;42.872;25.314;2023-03-04T11:40:12;96771.13;;;10.15;64.21
42771;BME280;28426;42.872;25.314;2023-03-04T11:42:50;96768.28;;;10.16;64.63
42771;BME280;28426;42.872;25.314;2023-03-04T11:45:27;96762.06;;;10.09;63.65
42771;BME280;28426;42.872;25.314;2023-03-04T11:48:07;96762.16;;;9.79;63.16
42771;BME280;28426;42.872;25.314;2023-03-04T11:50:44;96756.41;;;9.75;66.50
42771;BME280;28426;42.872;25.314;2023-03-04T11:53:32;96753.91;;;9.74;65.08
42771;BME280;28426;42.872;25.314;2023-03-04T11:56:25;96761.81;;;9.82;66.55
42771;BME280;28426;42.872;25.314;2023-03-04T11:59:16;96751.94;;;9.82;64.94
42771;BME280;28426;42.872;25.314;2023-03-04T12:02:02;96756.78;;;9.94;64.38
42771;BME280;28426;42.872;25.314;2023-03-04T12:04:55;96745.34;;;9.78;62.75
42771;BME280;28426;42.872;25.314;2023-03-04T12:07:52;96746.56;;;9.39;64.35
42771;BME280;28426;42.872;25.314;2023-03-04T12:10:31;96750.63;;;9.05;66.63
42771;BME280;28426;42.872;25.314;2023-03-04T12:13:24;96741.34;;;8.70;66.95
42771;BME280;28426;42.872;25.314;2023-03-04T12:16:12;96750.84;;;8.49;68.69
42771;BME280;28426;42.872;25.314;2023-03-04T12:19:02;96741.78;;;8.59;68.98
42771;BME280;28426;42.872;25.314;2023-03-04T12:21:53;96743.19;;;8.70;68.97
42771;BME280;28426;42.872;25.314;2023-03-04T12:24:40;96735.22;;;8.85;68.37
42771;BME280;28426;42.872;25.314;2023-03-04T12:27:23;96736.97;;;8.93;68.36
42771;BME280;28426;42.872;25.314;2023-03-04T12:29:59;96732.19;;;9.03;67.71
42771;BME280;28426;42.872;25.314;2023-03-04T12:32:39;96731.47;;;8.94;68.71
42771;BME280;28426;42.872;25.314;2023-03-04T12:35:26;96737.69;;;9.01;68.69
42771;BME280;28426;42.872;25.314;2023-03-04T12:38:13;96737.41;;;8.96;66.14
42771;BME280;28426;42.872;25.314;2023-03-04T12:40:53;96734.56;;;8.83;70.39
42771;BME280;28426;42.872;25.314;2023-03-04T12:43:41;96732.19;;;8.88;68.47
42771;BME280;28426;42.872;25.314;2023-03-04T12:46:29;96732.66;;;8.92;68.37
42771;BME280;28426;42.872;25.314;2023-03-04T12:52:15;96722.00;;;8.92;65.95
42771;BME280;28426;42.872;25.314;2023-03-04T12:54:51;96711.81;;;8.65;67.07
42771;BME280;28426;42.872;25.314;2023-03-04T12:57:26;96718.13;;;8.64;69.47
42771;BME280;28426;42.872;25.314;2023-03-04T13:00:08;96716.31;;;8.65;67.71
42771;BME280;28426;42.872;25.314;2023-03-04T13:02:53;96713.38;;;8.74;69.66
42771;BME280;28426;42.872;25.314;2023-03-04T13:05:43;96707.34;;;8.81;67.43
42771;BME280;28426;42.872;25.314;2023-03-04T13:08:28;96705.56;;;8.73;69.79
42771;BME280;28426;42.872;25.314;2023-03-04T13:11:02;96698.69;;;8.79;69.05
42771;BME280;28426;42.872;25.314;2023-03-04T13:13:38;96694.56;;;8.76;67.59
42771;BME280;28426;42.872;25.314;2023-03-04T13:16:33;96685.66;;;8.54;67.86
42771;BME280;28426;42.872;25.314;2023-03-04T13:25:30;96684.84;;;8.30;68.31
42771;BME280;28426;42.872;25.314;2023-03-04T13:28:12;96683.28;;;8.20;68.42
42771;BME280;28426;42.872;25.314;2023-03-04T13:31:15;96683.78;;;8.24;69.56
42771;BME280;28426;42.872;25.314;2023-03-04T13:33:58;96674.53;;;8.35;68.11
42771;BME280;28426;42.872;25.314;2023-03-04T13:39:35;96667.06;;;8.15;69.88
42771;BME280;28426;42.872;25.314;2023-03-04T13:42:39;96657.47;;;8.29;68.65
42771;BME280;28426;42.872;25.314;2023-03-04T13:45:32;96659.94;;;8.31;66.59